Time;durP1;ratioP1;P1;durP2;ratioP2;P2;SDS_P1;SDS_P2;PMS_P1;PMS_P2;Temp;Humidity;BMP_temperature;BMP_pressure;BME280_temperature;BME280_humidity;BME280_pressure;Samples;Min_cycle;Max_cycle;Signal;HPM_P1;HPM_P2
2021/04/26 00:00:53;;;;;;;;;;;;;;;-1.98;70.60;96413.56;3613337;39;19946;-54
2021/04/26 00:03:20;;;;;;;;;;;;;;;-2.04;71.60;96420.19;3618381;39;19949;-54
2021/04/26 00:05:46;;;;;;;;;;;;;;;-2.05;71.54;96419.38;3618377;39;19951;-54
2021/04/26 00:08:14;;;;;;;;;;;;;;;-2.18;71.33;96422.47;3625170;39;19943;-53
2021/04/26 00:10:41;;;;;;;;;;;;;;;-2.19;70.57;96427.78;3617424;39;19973;-53
2021/04/26 00:13:08;;;;;;;;;;;;;;;-2.23;71.07;96427.28;3612702;39;19950;-55
2021/04/26 00:15:43;;;;;;;;;;;;;;;-2.22;70.51;96425.53;3611521;39;20402;-53
2021/04/26 00:18:11;;;;;;;;;;;;;;;-2.22;70.85;96430.72;3614905;39;19943;-53
2021/04/26 00:20:39;;;;;;;;;;;;;;;-2.27;70.88;96432.97;3615625;39;19943;-54
2021/04/26 00:23:06;;;;;;;;;;;;;;;-2.27;71.79;96432.97;3605272;39;19943;-53
2021/04/26 00:25:33;;;;;;;;;;;;;;;-2.29;71.36;96433.13;3618344;39;19936;-53
2021/04/26 00:28:00;;;;;;;;;;;;;;;-2.31;71.73;96424.72;3614405;39;19947;-55
2021/04/26 00:30:27;;;;;;;;;;;;;;;-2.28;71.14;96427.00;3611603;39;19935;-53
2021/04/26 00:32:55;;;;;;;;;;;;;;;-2.33;71.53;96419.69;3618138;39;20207;-54
2021/04/26 00:35:22;;;;;;;;;;;;;;;-2.34;71.25;96420.66;3614835;39;19954;-53
2021/04/26 00:37:50;;;;;;;;;;;;;;;-2.35;71.71;96428.59;3615569;39;19951;-56
2021/04/26 00:40:18;;;;;;;;;;;;;;;-2.33;71.80;96431.81;3619100;39;20204;-52
2021/04/26 00:42:45;;;;;;;;;;;;;;;-2.32;72.11;96426.47;3603249;39;19950;-53
2021/04/26 00:45:14;;;;;;;;;;;;;;;-2.31;72.34;96424.72;3614363;39;19943;-54
2021/04/26 00:47:43;;;;;;;;;;;;;;;-2.30;71.59;96423.75;3618095;39;19953;-55
2021/04/26 00:50:11;;;;;;;;;;;;;;;-2.28;72.46;96427.00;3602502;39;19941;-53
2021/04/26 00:52:39;;;;;;;;;;;;;;;-2.32;71.70;96421.31;3616620;39;19951;-54
2021/04/26 00:55:07;;;;;;;;;;;;;;;-2.32;71.64;96425.69;3614697;39;19950;-53
2021/04/26 00:57:34;;;;;;;;;;;;;;;-2.33;71.33;96422.28;3613011;39;19951;-54
2021/04/26 01:00:03;;;;;;;;;;;;;;;-2.37;71.48;96423.59;3611161;39;19943;-55
2021/04/26 01:02:31;;;;;;;;;;;;;;;-2.40;72.09;96426.50;3615505;39;19939;-54
2021/04/26 01:05:00;;;;;;;;;;;;;;;-2.42;71.91;96428.44;3611390;39;19943;-54
2021/04/26 01:07:27;;;;;;;;;;;;;;;-2.47;71.81;96422.94;3616142;39;20553;-55
2021/04/26 01:09:55;;;;;;;;;;;;;;;-2.47;72.16;96420.38;3623771;39;19949;-54
2021/04/26 01:12:48;;;;;;;;;;;;;;;-2.47;71.71;96420.38;3614813;39;19966;-55
2021/04/26 01:15:16;;;;;;;;;;;;;;;-2.49;71.93;96427.47;3617781;39;19993;-54
2021/04/26 01:17:48;;;;;;;;;;;;;;;-2.50;72.12;96418.88;3620487;39;20300;-56
2021/04/26 01:20:34;;;;;;;;;;;;;;;-2.50;72.21;96421.47;3608353;39;19943;-55
2021/04/26 01:23:21;;;;;;;;;;;;;;;-2.53;72.17;96424.41;3625557;39;19945;-54
2021/04/26 01:25:49;;;;;;;;;;;;;;;-2.55;72.52;96426.34;3613331;39;20205;-56
2021/04/26 01:28:23;;;;;;;;;;;;;;;-2.53;72.91;96426.16;3614436;39;19950;-55
2021/04/26 01:30:54;;;;;;;;;;;;;;;-2.55;72.94;96428.09;3612665;39;19939;-55
2021/04/26 01:33:36;;;;;;;;;;;;;;;-2.58;72.88;96431.81;3605228;39;19961;-56
2021/04/26 01:36:05;;;;;;;;;;;;;;;-2.58;73.29;96426.63;3614812;39;20457;-54
2021/04/26 01:38:43;;;;;;;;;;;;;;;-2.63;73.19;96423.72;3613027;39;20215;-56
2021/04/26 01:41:11;;;;;;;;;;;;;;;-2.63;72.99;96418.56;3627132;39;19942;-54
2021/04/26 01:43:41;;;;;;;;;;;;;;;-2.68;73.36;96418.25;3616983;39;19938;-55
2021/04/26 01:46:10;;;;;;;;;;;;;;;-2.62;72.95;96422.75;3618563;39;19953;-55
2021/04/26 01:48:42;;;;;;;;;;;;;;;-2.62;73.57;96425.34;3616770;39;19947;-54
2021/04/26 01:51:10;;;;;;;;;;;;;;;-2.64;72.77;96429.84;3611699;39;20390;-54
2021/04/26 01:53:38;;;;;;;;;;;;;;;-2.68;72.76;96431.94;3610960;39;19951;-56
2021/04/26 01:56:07;;;;;;;;;;;;;;;-2.75;73.07;96432.75;3617034;39;19935;-55
2021/04/26 01:58:56;;;;;;;;;;;;;;;-2.83;73.56;96426.59;3617295;39;19935;-53
2021/04/26 02:01:24;;;;;;;;;;;;;;;-2.86;73.42;96426.91;3622139;39;19943;-54
2021/04/26 02:03:58;;;;;;;;;;;;;;;-2.88;73.66;96428.84;3615917;39;19947;-55
2021/04/26 02:06:37;;;;;;;;;;;;;;;-2.88;73.75;96426.25;3613144;39;19950;-55
2021/04/26 02:09:35;;;;;;;;;;;;;;;-2.88;73.29;96415.94;3609614;39;20370;-54
2021/04/26 02:12:11;;;;;;;;;;;;;;;-2.88;73.37;96417.72;3616477;39;19935;-56
2021/04/26 02:14:46;;;;;;;;;;;;;;;-2.91;73.62;96418.84;3620400;39;20298;-55
2021/04/26 02:17:15;;;;;;;;;;;;;;;-2.91;73.50;96418.84;3621008;39;19947;-54
2021/04/26 02:19:43;;;;;;;;;;;;;;;-2.91;73.64;96420.59;3617987;39;19949;-54
2021/04/26 02:22:10;;;;;;;;;;;;;;;-2.97;74.04;96422.03;3618005;39;20009;-54
2021/04/26 02:24:51;;;;;;;;;;;;;;;-2.99;74.03;96423.97;3606261;39;20039;-53
2021/04/26 02:27:19;;;;;;;;;;;;;;;-2.97;74.33;96424.63;3617422;39;19953;-55
2021/04/26 02:29:46;;;;;;;;;;;;;;;-2.97;75.05;96420.28;3602727;39;19947;-55
2021/04/26 02:32:15;;;;;;;;;;;;;;;-2.99;74.67;96422.22;3627953;39;19967;-54
2021/04/26 02:34:53;;;;;;;;;;;;;;;-3.10;75.20;96418.16;3616885;39;19949;-54
2021/04/26 02:37:20;;;;;;;;;;;;;;;-3.10;75.44;96418.16;3624626;39;19939;-54
2021/04/26 02:39:50;;;;;;;;;;;;;;;-3.07;75.43;96424.75;3615688;39;19964;-55
2021/04/26 02:42:18;;;;;;;;;;;;;;;-3.05;75.26;96415.09;3630263;39;19947;-53
2021/04/26 02:44:47;;;;;;;;;;;;;;;-3.09;75.17;96417.19;3622160;39;19943;-53
2021/04/26 02:47:19;;;;;;;;;;;;;;;-3.07;75.41;96413.63;3619719;39;19934;-55
2021/04/26 02:50:05;;;;;;;;;;;;;;;-3.07;75.30;96413.63;3604787;39;19943;-55
2021/04/26 02:52:39;;;;;;;;;;;;;;;-3.09;75.26;96409.44;3610344;39;19943;-54
2021/04/26 02:55:09;;;;;;;;;;;;;;;-3.10;75.00;96420.72;3602253;39;19965;-53
2021/04/26 02:57:38;;;;;;;;;;;;;;;-3.12;75.00;96414.13;3622134;39;19947;-53
2021/04/26 03:00:06;;;;;;;;;;;;;;;-3.14;74.47;96405.72;3621345;39;19947;-54
2021/04/26 03:02:39;;;;;;;;;;;;;;;-3.14;75.07;96408.28;3606315;39;19946;-53
2021/04/26 03:05:09;;;;;;;;;;;;;;;-3.15;75.18;96412.66;3613071;39;19943;-54
2021/04/26 03:07:37;;;;;;;;;;;;;;;-3.16;74.69;96423.13;3597037;39;21394;-54
2021/04/26 03:10:07;;;;;;;;;;;;;;;-3.17;75.20;96422.31;3613713;39;19953;-54
2021/04/26 03:12:34;;;;;;;;;;;;;;;-3.23;75.44;96422.16;3609713;39;19949;-54
2021/04/26 03:15:04;;;;;;;;;;;;;;;-3.29;75.47;96428.72;3600793;39;19939;-55
2021/04/26 03:17:32;;;;;;;;;;;;;;;-3.29;75.99;96423.56;3614852;39;19943;-54
2021/04/26 03:20:08;;;;;;;;;;;;;;;-3.30;75.84;96429.69;3616190;39;20263;-54
2021/04/26 03:22:47;;;;;;;;;;;;;;;-3.25;76.09;96424.84;3615384;39;19949;-54
2021/04/26 03:25:18;;;;;;;;;;;;;;;-3.27;75.37;96424.22;3617551;39;19949;-55
2021/04/26 03:27:46;;;;;;;;;;;;;;;-3.25;75.45;96424.84;3615687;39;19939;-55
2021/04/26 03:30:17;;;;;;;;;;;;;;;-3.23;75.14;96429.88;3615580;39;20399;-54
2021/04/26 03:32:59;;;;;;;;;;;;;;;-3.26;75.12;96429.22;3611331;39;20014;-55
2021/04/26 03:35:27;;;;;;;;;;;;;;;-3.22;75.12;96431.50;3612730;39;19951;-56
2021/04/26 03:37:55;;;;;;;;;;;;;;;-3.22;75.33;96427.13;3616561;39;19943;-55
2021/04/26 03:40:25;;;;;;;;;;;;;;;-3.17;75.92;96435.22;3616956;39;19946;-54
2021/04/26 03:42:54;;;;;;;;;;;;;;;-3.13;75.62;96439.09;3623162;39;19957;-54
2021/04/26 03:45:22;;;;;;;;;;;;;;;-3.12;75.63;96445.88;3609507;39;20251;-55
2021/04/26 03:48:19;;;;;;;;;;;;;;;-3.10;75.44;96436.22;3588661;39;20236;-56
2021/04/26 03:51:08;;;;;;;;;;;;;;;-3.04;75.42;96439.94;3621256;39;19949;-54
2021/04/26 03:53:55;;;;;;;;;;;;;;;-3.02;75.84;96442.38;3612135;39;19932;-55
2021/04/26 03:56:33;;;;;;;;;;;;;;;-3.01;75.71;96438.81;3623030;39;19947;-55
2021/04/26 03:58:59;;;;;;;;;;;;;;;-3.01;75.62;96439.63;3611710;39;19943;-54
2021/04/26 04:01:28;;;;;;;;;;;;;;;-2.97;75.64;96434.97;3611563;39;19939;-56
2021/04/26 04:03:55;;;;;;;;;;;;;;;-2.89;75.33;96434.97;3618569;39;19942;-53
2021/04/26 04:06:23;;;;;;;;;;;;;;;-2.85;75.17;96433.69;3619352;39;19939;-55
2021/04/26 04:09:26;;;;;;;;;;;;;;;-2.82;75.03;96438.56;3586772;39;19944;-54
2021/04/26 04:12:28;;;;;;;;;;;;;;;-2.72;75.27;96440.19;3584149;39;19940;-54
2021/04/26 04:15:00;;;;;;;;;;;;;;;-2.07;74.47;96436.81;3622077;39;19986;-60
2021/04/26 04:17:29;;;;;;;;;;;;;;;-0.78;72.26;96441.09;3611342;39;20014;-54
2021/04/26 04:19:57;;;;;;;;;;;;;;;0.25;68.89;96440.81;3612110;39;19950;-55
2021/04/26 04:22:23;;;;;;;;;;;;;;;1.17;67.01;96444.00;3615374;39;19931;-54
2021/04/26 04:24:59;;;;;;;;;;;;;;;2.04;64.34;96444.81;3606331;39;20499;-53
2021/04/26 04:27:26;;;;;;;;;;;;;;;2.74;61.48;96444.91;3614237;39;19947;-53
2021/04/26 04:29:53;;;;;;;;;;;;;;;3.39;59.86;96439.31;3616520;39;19953;-53
2021/04/26 04:32:41;;;;;;;;;;;;;;;4.20;57.05;96444.63;3599145;39;20314;-55
2021/04/26 04:35:40;;;;;;;;;;;;;;;4.95;54.36;96437.47;3593209;39;20223;-53
2021/04/26 04:38:33;;;;;;;;;;;;;;;5.59;52.17;96438.34;3611979;39;19943;-55
2021/04/26 04:41:19;;;;;;;;;;;;;;;6.08;50.18;96430.00;3621156;39;19946;-54
2021/04/26 04:43:46;;;;;;;;;;;;;;;6.44;49.63;96425.84;3614115;39;19939;-54
2021/04/26 04:46:13;;;;;;;;;;;;;;;6.88;48.21;96429.25;3616584;39;19966;-54
2021/04/26 04:48:51;;;;;;;;;;;;;;;7.29;46.19;96419.06;3626053;39;19942;-54
2021/04/26 04:51:22;;;;;;;;;;;;;;;7.48;45.82;96421.63;3617797;39;19941;-56
2021/04/26 04:53:55;;;;;;;;;;;;;;;7.79;45.71;96423.22;3611278;39;19947;-55
2021/04/26 04:56:29;;;;;;;;;;;;;;;8.18;44.22;96428.09;3594456;39;20119;-54
2021/04/26 04:58:56;;;;;;;;;;;;;;;8.17;42.50;96426.47;3610221;39;19947;-54
2021/04/26 05:01:25;;;;;;;;;;;;;;;8.50;43.08;96429.59;3617043;39;19949;-54
2021/04/26 05:04:11;;;;;;;;;;;;;;;8.48;40.90;96423.78;3616280;39;19935;-54
2021/04/26 05:07:10;;;;;;;;;;;;;;;7.21;42.10;96421.97;3605788;39;19943;-56
2021/04/26 05:09:56;;;;;;;;;;;;;;;6.64;44.42;96414.38;3618919;39;19940;-54
2021/04/26 05:12:42;;;;;;;;;;;;;;;5.97;45.93;96415.72;3621378;39;19951;-55
2021/04/26 05:15:19;;;;;;;;;;;;;;;5.95;46.92;96415.97;3622441;39;20220;-55
2021/04/26 05:17:47;;;;;;;;;;;;;;;5.34;46.68;96402.47;3622417;39;19953;-56
2021/04/26 05:20:14;;;;;;;;;;;;;;;4.95;49.26;96419.16;3618341;39;19943;-54
2021/04/26 05:22:41;;;;;;;;;;;;;;;4.94;48.46;96415.72;3610231;39;19947;-55
2021/04/26 05:25:09;;;;;;;;;;;;;;;4.58;49.82;96417.03;3613016;39;19949;-55
2021/04/26 05:27:39;;;;;;;;;;;;;;;4.18;51.36;96420.53;3608193;39;19939;-59
2021/04/26 05:30:08;;;;;;;;;;;;;;;3.80;51.28;96410.69;3613611;39;19939;-54
2021/04/26 05:32:36;;;;;;;;;;;;;;;3.37;52.27;96412.66;3614882;39;20293;-54
2021/04/26 05:35:11;;;;;;;;;;;;;;;3.12;52.99;96409.75;3620505;39;19943;-55
2021/04/26 05:37:41;;;;;;;;;;;;;;;2.97;53.24;96407.31;3623305;39;19943;-55
2021/04/26 05:40:09;;;;;;;;;;;;;;;2.80;52.82;96406.03;3604749;39;19943;-53
2021/04/26 05:42:38;;;;;;;;;;;;;;;2.51;53.72;96405.31;3615258;39;19943;-55
2021/04/26 05:45:07;;;;;;;;;;;;;;;2.35;55.17;96396.78;3602379;39;19944;-55
2021/04/26 05:48:00;;;;;;;;;;;;;;;2.24;56.55;96397.34;3591108;39;19943;-53
2021/04/26 05:50:32;;;;;;;;;;;;;;;2.24;55.47;96397.34;3618603;39;19943;-54
2021/04/26 05:52:59;;;;;;;;;;;;;;;2.33;54.27;96390.97;3624605;39;19939;-55
2021/04/26 05:55:27;;;;;;;;;;;;;;;2.34;54.04;96395.19;3624559;39;19950;-54
2021/04/26 05:57:53;;;;;;;;;;;;;;;2.43;54.70;96388.81;3623824;39;19955;-54
2021/04/26 06:00:20;;;;;;;;;;;;;;;2.61;54.45;96385.72;3623043;39;21286;-54
2021/04/26 06:02:47;;;;;;;;;;;;;;;2.81;54.88;96382.41;3612711;39;19943;-54
2021/04/26 06:05:14;;;;;;;;;;;;;;;2.80;53.42;96383.41;3610693;39;19939;-54
2021/04/26 06:07:41;;;;;;;;;;;;;;;2.91;53.41;96377.63;3620375;39;19935;-55
2021/04/26 06:10:10;;;;;;;;;;;;;;;2.99;53.21;96381.88;3613410;39;19939;-54
2021/04/26 06:12:37;;;;;;;;;;;;;;;3.06;52.50;96380.06;3632307;39;19947;-54
2021/04/26 06:15:05;;;;;;;;;;;;;;;3.18;52.71;96379.50;3631502;39;19942;-54
2021/04/26 06:17:32;;;;;;;;;;;;;;;3.26;51.34;96383.72;3618450;39;19947;-53
2021/04/26 06:19:59;;;;;;;;;;;;;;;3.35;51.22;96385.16;3620546;39;19960;-55
2021/04/26 06:22:26;;;;;;;;;;;;;;;3.45;50.99;96382.16;3616880;39;19947;-55
2021/04/26 06:24:53;;;;;;;;;;;;;;;3.51;51.49;96382.16;3627342;39;19947;-55
2021/04/26 06:27:20;;;;;;;;;;;;;;;3.60;50.58;96380.19;3619789;39;20030;-53
2021/04/26 06:29:47;;;;;;;;;;;;;;;3.77;51.00;96380.59;3619740;39;20245;-55
2021/04/26 06:32:14;;;;;;;;;;;;;;;3.95;50.89;96373.94;3622100;39;19945;-53
2021/04/26 06:34:41;;;;;;;;;;;;;;;4.14;50.08;96374.94;3616067;39;19943;-54
2021/04/26 06:37:09;;;;;;;;;;;;;;;4.24;50.01;96356.25;3620122;39;20004;-60
2021/04/26 06:39:36;;;;;;;;;;;;;;;4.51;49.32;96375.25;3605024;39;19953;-54
2021/04/26 06:42:03;;;;;;;;;;;;;;;4.59;48.86;96366.41;3628655;39;19946;-54
2021/04/26 06:44:31;;;;;;;;;;;;;;;4.67;49.77;96367.97;3612409;39;19938;-54
2021/04/26 06:47:00;;;;;;;;;;;;;;;4.89;48.46;96364.06;3612364;39;19945;-54
2021/04/26 06:49:27;;;;;;;;;;;;;;;5.04;48.38;96363.00;3619339;39;19947;-54
2021/04/26 06:51:54;;;;;;;;;;;;;;;5.17;46.64;96356.91;3622248;39;19958;-54
2021/04/26 06:54:21;;;;;;;;;;;;;;;5.28;45.63;96352.81;3620260;39;19943;-54
2021/04/26 06:56:48;;;;;;;;;;;;;;;5.47;43.32;96356.31;3612187;39;20357;-54
2021/04/26 06:59:15;;;;;;;;;;;;;;;5.54;42.10;96357.88;3611735;39;19949;-54
2021/04/26 07:01:42;;;;;;;;;;;;;;;5.59;42.78;96357.22;3599759;39;20007;-54
2021/04/26 07:04:09;;;;;;;;;;;;;;;5.70;42.31;96359.16;3618935;39;19947;-56
2021/04/26 07:06:36;;;;;;;;;;;;;;;5.88;42.28;96359.41;3626263;39;19941;-56
2021/04/26 07:09:03;;;;;;;;;;;;;;;5.98;40.91;96355.31;3622852;39;19953;-56
2021/04/26 07:11:30;;;;;;;;;;;;;;;6.09;40.99;96353.81;3623000;39;19943;-54
2021/04/26 07:13:57;;;;;;;;;;;;;;;6.17;39.76;96349.34;3621580;39;20307;-53
2021/04/26 07:16:26;;;;;;;;;;;;;;;6.26;39.54;96348.84;3622620;39;19943;-54
2021/04/26 07:18:53;;;;;;;;;;;;;;;6.37;38.70;96343.88;3614170;39;19949;-54
2021/04/26 07:21:20;;;;;;;;;;;;;;;6.51;38.17;96341.91;3623532;39;20276;-54
2021/04/26 07:23:47;;;;;;;;;;;;;;;6.61;36.95;96347.44;3624094;39;19943;-53
2021/04/26 07:26:15;;;;;;;;;;;;;;;6.69;36.66;96336.69;3599421;39;19965;-54
2021/04/26 07:28:42;;;;;;;;;;;;;;;6.86;36.57;96330.81;3619590;39;19945;-54
2021/04/26 07:31:09;;;;;;;;;;;;;;;7.00;36.82;96340.13;3620526;39;20000;-55
2021/04/26 07:33:36;;;;;;;;;;;;;;;7.11;36.11;96349.06;3612362;39;19951;-55
2021/04/26 07:36:04;;;;;;;;;;;;;;;7.23;34.44;96344.66;3623373;39;19943;-55
2021/04/26 07:38:31;;;;;;;;;;;;;;;7.08;33.86;96345.03;3622413;39;20289;-55
2021/04/26 07:40:57;;;;;;;;;;;;;;;7.19;34.12;96348.75;3624084;39;20390;-56
2021/04/26 07:43:25;;;;;;;;;;;;;;;7.38;33.70;96348.69;3621696;39;19947;-54
2021/04/26 07:45:52;;;;;;;;;;;;;;;-146.28;100.00;62448.88;3621144;39;19946;-54
2021/04/26 07:48:19;;;;;;;;;;;;;;;7.74;33.60;96335.63;3619074;39;19943;-54
2021/04/26 07:50:46;;;;;;;;;;;;;;;-146.28;100.00;62448.88;3622263;39;20365;-54
2021/04/26 07:53:13;;;;;;;;;;;;;;;-146.28;100.00;62448.88;3622750;39;19966;-55
2021/04/26 07:55:40;;;;;;;;;;;;;;;-146.28;100.00;62448.88;3621774;39;19943;-54
2021/04/26 07:58:08;;;;;;;;;;;;;;;-146.28;100.00;62448.88;3623298;39;19943;-56
2021/04/26 08:00:35;;;;;;;;;;;;;;;-146.28;100.00;62448.88;3610981;39;20289;-55
2021/04/26 08:03:02;;;;;;;;;;;;;;;-146.28;100.00;62448.88;3614334;39;19964;-55
2021/04/26 08:05:29;;;;;;;;;;;;;;;-146.28;100.00;62448.88;3621953;39;19949;-55
2021/04/26 08:07:56;;;;;;;;;;;;;;;-146.28;100.00;62448.88;3618612;39;19939;-55
2021/04/26 08:10:23;;;;;;;;;;;;;;;-146.28;100.00;62448.88;3610222;39;20345;-54
2021/04/26 08:12:51;;;;;;;;;;;;;;;-146.28;100.00;62448.88;3621705;39;19949;-54
2021/04/26 08:15:19;;;;;;;;;;;;;;;-146.28;100.00;62448.88;3620597;39;19943;-54
2021/04/26 08:17:46;;;;;;;;;;;;;;;-146.28;100.00;62448.88;3620798;39;19957;-55
2021/04/26 08:20:13;;;;;;;;;;;;;;;-146.28;100.00;62448.88;3620974;39;20298;-54
2021/04/26 08:22:40;;;;;;;;;;;;;;;-146.28;100.00;62448.88;3606726;39;20019;-55
2021/04/26 08:25:08;;;;;;;;;;;;;;;-146.28;100.00;62448.88;3619242;39;19949;-54
2021/04/26 08:27:35;;;;;;;;;;;;;;;8.25;32.76;96326.25;3623273;39;19949;-55
2021/04/26 08:30:03;;;;;;;;;;;;;;;-146.28;100.00;62448.88;3617685;39;19951;-54
2021/04/26 08:32:30;;;;;;;;;;;;;;;-146.28;100.00;62448.88;3631380;39;20207;-55
2021/04/26 08:34:57;;;;;;;;;;;;;;;-146.28;100.00;62448.88;3619933;39;20385;-56
2021/04/26 08:37:24;;;;;;;;;;;;;;;-146.28;100.00;62448.88;3626813;39;19943;-55
2021/04/26 08:39:51;;;;;;;;;;;;;;;-146.28;100.00;62448.88;3620189;39;20296;-54
2021/04/26 08:42:19;;;;;;;;;;;;;;;-146.28;100.00;62448.88;3623689;39;19943;-55
2021/04/26 08:44:46;;;;;;;;;;;;;;;-146.28;100.00;62448.88;3620979;39;19947;-55
2021/04/26 08:47:14;;;;;;;;;;;;;;;-146.28;100.00;62448.88;3620416;39;19973;-54
2021/04/26 08:49:41;;;;;;;;;;;;;;;-146.28;100.00;62448.88;3621326;39;19943;-55
2021/04/26 08:52:08;;;;;;;;;;;;;;;-146.28;100.00;62448.88;3618209;39;19943;-57
2021/04/26 08:54:35;;;;;;;;;;;;;;;-146.28;100.00;62448.88;3622842;39;19951;-55
2021/04/26 08:57:03;;;;;;;;;;;;;;;-146.28;100.00;62448.88;3622739;39;19963;-56
2021/04/26 08:59:30;;;;;;;;;;;;;;;-146.28;100.00;62448.88;3623953;39;19949;-56
2021/04/26 09:02:02;;;;;;;;;;;;;;;-146.28;100.00;62448.88;3621640;39;19969;-54
2021/04/26 09:04:32;;;;;;;;;;;;;;;-146.28;100.00;62448.88;3621349;39;19953;-55
2021/04/26 09:07:01;;;;;;;;;;;;;;;-146.28;100.00;62448.88;3622937;39;19953;-53
2021/04/26 09:09:36;;;;;;;;;;;;;;;-146.28;100.00;62448.88;3613088;39;19943;-55
2021/04/26 09:12:05;;;;;;;;;;;;;;;-146.28;100.00;62448.88;3615309;39;19945;-54
2021/04/26 09:14:38;;;;;;;;;;;;;;;-146.28;100.00;62448.88;3620943;39;19943;-54
2021/04/26 09:17:25;;;;;;;;;;;;;;;-146.28;100.00;62448.88;3611796;39;19943;-55
2021/04/26 09:19:53;;;;;;;;;;;;;;;-146.28;100.00;62448.88;3618841;39;19943;-54
2021/04/26 09:22:55;;;;;;;;;;;;;;;-146.28;100.00;62448.88;3622887;39;19943;-54
2021/04/26 09:25:22;;;;;;;;;;;;;;;-146.28;100.00;62448.88;3583935;39;20251;-55
2021/04/26 09:27:50;;;;;;;;;;;;;;;-146.28;100.00;62448.88;3618078;39;19949;-55
2021/04/26 09:30:33;;;;;;;;;;;;;;;-146.28;100.00;62448.88;3619199;39;20269;-56
2021/04/26 09:33:14;;;;;;;;;;;;;;;-146.28;100.00;62448.88;3619437;39;19951;-56
2021/04/26 09:35:42;;;;;;;;;;;;;;;-146.28;100.00;62448.88;3623169;39;19977;-55
2021/04/26 09:38:24;;;;;;;;;;;;;;;-146.28;100.00;62448.88;3622721;39;19970;-54
2021/04/26 09:41:06;;;;;;;;;;;;;;;-146.28;100.00;62448.88;3620384;39;19943;-57
2021/04/26 09:43:33;;;;;;;;;;;;;;;-146.28;100.00;62448.88;3621838;39;19943;-55
2021/04/26 09:46:01;;;;;;;;;;;;;;;-146.28;100.00;62448.88;3621754;39;20208;-55
2021/04/26 09:48:29;;;;;;;;;;;;;;;-146.28;100.00;62448.88;3605765;39;19943;-55
2021/04/26 09:50:56;;;;;;;;;;;;;;;-146.28;100.00;62448.88;3616865;39;20457;-54
2021/04/26 09:53:25;;;;;;;;;;;;;;;-146.28;100.00;62448.88;3616089;39;19949;-54
2021/04/26 09:55:54;;;;;;;;;;;;;;;-146.28;100.00;62448.88;3620816;39;19943;-54
2021/04/26 09:58:21;;;;;;;;;;;;;;;-146.28;100.00;62448.88;3620050;39;19941;-53
2021/04/26 10:00:49;;;;;;;;;;;;;;;-146.28;100.00;62448.88;3619880;39;19951;-55
2021/04/26 10:03:17;;;;;;;;;;;;;;;-146.28;100.00;62448.88;3619266;39;19943;-56
2021/04/26 10:05:45;;;;;;;;;;;;;;;-146.28;100.00;62448.88;3618633;39;19950;-56
2021/04/26 10:08:14;;;;;;;;;;;;;;;-146.28;100.00;62448.88;3616773;39;19951;-55
2021/04/26 10:10:43;;;;;;;;;;;;;;;-146.28;100.00;62448.88;3621693;39;19943;-56
2021/04/26 10:13:11;;;;;;;;;;;;;;;-146.28;100.00;62448.88;3627937;39;20698;-54
2021/04/26 10:15:39;;;;;;;;;;;;;;;-146.28;100.00;62448.88;3624827;39;19943;-55
2021/04/26 10:18:09;;;;;;;;;;;;;;;-146.28;100.00;62448.88;3620533;39;19965;-55
2021/04/26 10:20:41;;;;;;;;;;;;;;;-146.28;100.00;62448.88;3613140;39;19942;-55
2021/04/26 10:23:29;;;;;;;;;;;;;;;-146.28;100.00;62448.88;3631539;39;19942;-58
2021/04/26 10:25:56;;;;;;;;;;;;;;;-146.28;100.00;62448.88;3623743;39;20361;-55
2021/04/26 10:28:31;;;;;;;;;;;;;;;-146.28;100.00;62448.88;3623626;39;19949;-56
2021/04/26 10:31:01;;;;;;;;;;;;;;;-146.28;100.00;62448.88;3614826;39;19961;-54
2021/04/26 10:33:35;;;;;;;;;;;;;;;-146.28;100.00;62448.88;3622251;39;20273;-56
2021/04/26 10:36:03;;;;;;;;;;;;;;;-146.28;100.00;62448.88;3621319;39;19945;-55
2021/04/26 10:38:33;;;;;;;;;;;;;;;-146.28;100.00;62448.88;3613879;39;19943;-54
2021/04/26 10:41:02;;;;;;;;;;;;;;;-146.28;100.00;62448.88;3625268;39;19939;-54
2021/04/26 10:43:30;;;;;;;;;;;;;;;-146.28;100.00;62448.88;3610392;39;19943;-53
2021/04/26 10:46:16;;;;;;;;;;;;;;;-146.28;100.00;62448.88;3615823;39;19939;-54
2021/04/26 10:49:13;;;;;;;;;;;;;;;-146.28;100.00;62448.88;3606805;39;19985;-55
2021/04/26 10:51:40;;;;;;;;;;;;;;;-146.28;100.00;62448.88;3621689;39;19963;-56
2021/04/26 10:54:09;;;;;;;;;;;;;;;-146.28;100.00;62448.88;3624767;39;20296;-55
2021/04/26 10:56:36;;;;;;;;;;;;;;;-146.28;100.00;62448.88;3606907;39;19943;-57
2021/04/26 10:59:16;;;;;;;;;;;;;;;-146.28;100.00;62448.88;3625421;39;19935;-54
2021/04/26 11:01:43;;;;;;;;;;;;;;;-146.28;100.00;62448.88;3625008;39;19947;-54
2021/04/26 11:04:11;;;;;;;;;;;;;;;-146.28;100.00;62448.88;3621020;39;19939;-57
2021/04/26 11:06:38;;;;;;;;;;;;;;;-146.28;100.00;62448.88;3606319;39;20025;-54
2021/04/26 11:09:11;;;;;;;;;;;;;;;-146.28;100.00;62448.88;3622058;39;19942;-55
2021/04/26 11:11:50;;;;;;;;;;;;;;;-146.28;100.00;62448.88;3613147;39;20211;-54
2021/04/26 11:14:22;;;;;;;;;;;;;;;-146.28;100.00;62448.88;3617529;39;19935;-54
2021/04/26 11:17:03;;;;;;;;;;;;;;;-146.28;100.00;62448.88;3611439;39;20211;-55
2021/04/26 11:19:31;;;;;;;;;;;;;;;-146.28;100.00;62448.88;3614298;39;19941;-54
2021/04/26 11:21:59;;;;;;;;;;;;;;;-146.28;100.00;62448.88;3622265;39;20200;-54
2021/04/26 11:24:26;;;;;;;;;;;;;;;-146.28;100.00;62448.88;3623915;39;19988;-54
2021/04/26 11:27:08;;;;;;;;;;;;;;;-146.28;100.00;62448.88;3624995;39;19941;-55
2021/04/26 11:29:55;;;;;;;;;;;;;;;-146.28;100.00;62448.88;3624753;39;20302;-55
2021/04/26 11:32:24;;;;;;;;;;;;;;;-146.28;100.00;62448.88;3622585;39;20302;-54
2021/04/26 11:34:53;;;;;;;;;;;;;;;-146.28;100.00;62448.88;3625171;39;19939;-54
2021/04/26 11:37:20;;;;;;;;;;;;;;;-146.28;100.00;62448.88;3623614;39;20630;-55
2021/04/26 11:39:48;;;;;;;;;;;;;;;-146.28;100.00;62448.88;3622512;39;19941;-53
2021/04/26 11:42:29;;;;;;;;;;;;;;;-146.28;100.00;62448.88;3624062;39;19943;-55
2021/04/26 11:44:57;;;;;;;;;;;;;;;-146.28;100.00;62448.88;3610789;39;19950;-54
2021/04/26 11:47:25;;;;;;;;;;;;;;;-146.28;100.00;62448.88;3620444;39;20251;-54
2021/04/26 11:49:54;;;;;;;;;;;;;;;-146.28;100.00;62448.88;3622395;39;20284;-54
2021/04/26 11:52:25;;;;;;;;;;;;;;;-146.28;100.00;62448.88;3623196;39;19945;-56
2021/04/26 11:54:53;;;;;;;;;;;;;;;-146.28;100.00;62448.88;3624360;39;19943;-54
2021/04/26 11:57:22;;;;;;;;;;;;;;;-146.28;100.00;62448.88;3623830;39;19968;-57
2021/04/26 11:59:54;;;;;;;;;;;;;;;-146.28;100.00;62448.88;3622427;39;19961;-54
2021/04/26 12:02:28;;;;;;;;;;;;;;;-146.28;100.00;62448.88;3619049;39;19943;-55
2021/04/26 12:04:59;;;;;;;;;;;;;;;-146.28;100.00;62448.88;3621641;39;19939;-53
2021/04/26 12:07:27;;;;;;;;;;;;;;;-146.28;100.00;62448.88;3631545;39;19943;-55
2021/04/26 12:09:54;;;;;;;;;;;;;;;-146.28;100.00;62448.88;3614762;39;19943;-55
2021/04/26 12:12:22;;;;;;;;;;;;;;;-146.28;100.00;62448.88;3618117;39;20008;-55
2021/04/26 12:14:56;;;;;;;;;;;;;;;-146.28;100.00;62448.88;3618442;39;19946;-55
2021/04/26 12:17:25;;;;;;;;;;;;;;;-146.28;100.00;62448.88;3621186;39;19945;-55
2021/04/26 12:19:52;;;;;;;;;;;;;;;-146.28;100.00;62448.88;3617826;39;19935;-56
2021/04/26 12:22:20;;;;;;;;;;;;;;;-146.28;100.00;62448.88;3615124;39;19982;-55
2021/04/26 12:24:52;;;;;;;;;;;;;;;-146.28;100.00;62448.88;3621046;39;19939;-54
2021/04/26 12:27:24;;;;;;;;;;;;;;;-146.28;100.00;62448.88;3620529;39;20160;-55
2021/04/26 12:29:51;;;;;;;;;;;;;;;-146.28;100.00;62448.88;3618263;39;19950;-54
2021/04/26 12:32:20;;;;;;;;;;;;;;;-146.28;100.00;62448.88;3620425;39;19953;-53
2021/04/26 12:34:57;;;;;;;;;;;;;;;-146.28;100.00;62448.88;3620494;39;19938;-56
2021/04/26 12:37:26;;;;;;;;;;;;;;;-146.28;100.00;62448.88;3620920;39;20139;-58
2021/04/26 12:40:08;;;;;;;;;;;;;;;-146.28;100.00;62448.88;3619272;39;19943;-59
2021/04/26 12:42:35;;;;;;;;;;;;;;;-146.28;100.00;62448.88;3622332;39;19939;-58
2021/04/26 12:45:29;;;;;;;;;;;;;;;-146.28;100.00;62448.88;3619691;39;20280;-58
2021/04/26 12:48:00;;;;;;;;;;;;;;;-146.28;100.00;62448.88;3606191;39;20224;-56
2021/04/26 12:50:27;;;;;;;;;;;;;;;-146.28;100.00;62448.88;3621432;39;19941;-56
2021/04/26 12:53:03;;;;;;;;;;;;;;;-146.28;100.00;62448.88;3621824;39;19947;-55
2021/04/26 12:55:31;;;;;;;;;;;;;;;-146.28;100.00;62448.88;3620071;39;19943;-55
2021/04/26 12:58:04;;;;;;;;;;;;;;;-146.28;100.00;62448.88;3620287;39;19942;-54